Time;durP1;ratioP1;P1;durP2;ratioP2;P2;SDS_P1;SDS_P2;PMS_P1;PMS_P2;Temp;Humidity;BMP_temperature;BMP_pressure;BME280_temperature;BME280_humidity;BME280_pressure;Samples;Min_cycle;Max_cycle;Signal;HPM_P1;HPM_P2
2023/12/26 00:04:38;;;;;;;0.38;0.30;;;;;;;18.76;56.35;96581.03;10406404;28;20083;-28
2023/12/26 00:09:40;;;;;;;0.30;0.20;;;;;;;18.76;56.30;96587.81;10399470;28;20053;-29
2023/12/26 00:14:41;;;;;;;0.13;0.13;;;;;;;18.78;55.80;96594.59;10400702;28;20048;-29
2023/12/26 00:19:41;;;;;;;0.20;0.20;;;;;;;18.78;56.18;96594.59;10407497;28;20044;-29
2023/12/26 00:24:41;;;;;;;0.32;0.25;;;;;;;18.78;56.12;96578.50;10405795;28;20037;-29
2023/12/26 00:29:42;;;;;;;0.30;0.30;;;;;;;18.77;55.90;96581.91;10397122;28;20057;-29
2023/12/26 00:34:43;;;;;;;0.20;0.10;;;;;;;18.79;55.81;96590.34;10403324;28;20052;-30
2023/12/26 00:39:45;;;;;;;0.50;0.30;;;;;;;18.74;56.16;96576.84;10403029;28;20037;-30
2023/12/26 00:44:46;;;;;;;0.32;0.20;;;;;;;18.74;56.22;96581.94;10398233;28;20041;-29
2023/12/26 00:49:46;;;;;;;0.30;0.27;;;;;;;18.74;56.10;96584.47;10396484;28;20041;-29
2023/12/26 00:54:46;;;;;;;0.30;0.30;;;;;;;18.74;56.12;96581.94;10426333;28;20411;-29
2023/12/26 00:59:47;;;;;;;0.30;0.30;;;;;;;18.75;56.06;96584.44;10393552;28;20379;-29
2023/12/26 01:04:47;;;;;;;0.20;0.17;;;;;;;18.73;56.13;96577.66;10424924;28;20025;-28
2023/12/26 01:09:48;;;;;;;0.10;0.10;;;;;;;18.74;56.12;96579.38;10392336;28;20796;-29
2023/12/26 01:14:48;;;;;;;0.13;0.10;;;;;;;18.71;56.24;96576.84;10394377;28;20454;-29
2023/12/26 01:19:48;;;;;;;0.30;0.30;;;;;;;18.72;56.08;96598.81;10396115;28;20120;-28
2023/12/26 01:24:51;;;;;;;0.10;0.10;;;;;;;18.68;56.07;96592.91;10391264;28;20531;-29
2023/12/26 01:29:51;;;;;;;0.30;0.15;;;;;;;18.69;55.96;96589.56;10389892;28;20520;-29
2023/12/26 01:34:51;;;;;;;0.20;0.20;;;;;;;18.71;55.95;96592.06;10395224;28;20045;-29
2023/12/26 01:39:51;;;;;;;0.20;0.20;;;;;;;18.70;56.28;96600.50;10394031;28;20086;-29
2023/12/26 01:44:53;;;;;;;0.28;0.20;;;;;;;18.68;56.47;96607.28;10393472;28;20032;-28
2023/12/26 01:49:54;;;;;;;0.30;0.20;;;;;;;18.68;55.94;96615.72;10396541;28;20446;-29
2023/12/26 01:54:54;;;;;;;0.52;0.30;;;;;;;18.68;56.22;96630.13;10396429;28;20040;-29
2023/12/26 01:59:55;;;;;;;0.45;0.32;;;;;;;18.69;56.02;96629.25;10391823;28;20033;-29
2023/12/26 02:04:56;;;;;;;0.57;0.20;;;;;;;18.69;56.08;96636.88;10398838;28;20031;-29
2023/12/26 02:10:00;;;;;;;0.50;0.30;;;;;;;18.67;56.20;96630.97;10395553;28;20030;-29
2023/12/26 02:15:02;;;;;;;0.20;0.10;;;;;;;18.67;56.12;96643.66;10392271;28;20037;-29
2023/12/26 02:20:03;;;;;;;0.30;0.20;;;;;;;18.68;56.10;96640.25;10393844;28;20554;-29
2023/12/26 02:25:07;;;;;;;0.40;0.20;;;;;;;18.66;56.02;96644.50;10394441;28;20112;-30
2023/12/26 02:30:10;;;;;;;0.28;0.20;;;;;;;18.66;56.16;96654.63;10391591;28;20037;-29
2023/12/26 02:35:10;;;;;;;0.20;0.10;;;;;;;18.64;56.30;96656.31;10430075;28;20038;-29
2023/12/26 02:40:11;;;;;;;0.45;0.20;;;;;;;18.65;56.13;96652.91;10395908;28;20032;-30
2023/12/26 02:45:12;;;;;;;0.20;0.20;;;;;;;18.64;56.26;96656.31;10395438;28;20026;-29
2023/12/26 02:50:12;;;;;;;0.20;0.20;;;;;;;18.65;56.33;96658.00;10395768;28;20056;-29
2023/12/26 02:55:13;;;;;;;1.20;0.40;;;;;;;18.63;56.24;96655.47;10397435;28;20503;-30
2023/12/26 03:00:13;;;;;;;0.50;0.27;;;;;;;18.63;56.22;96664.75;10394396;28;20064;-29
2023/12/26 03:05:14;;;;;;;0.30;0.30;;;;;;;18.61;56.29;96662.25;10395300;28;20109;-29
2023/12/26 03:10:15;;;;;;;0.50;0.32;;;;;;;18.61;56.29;96664.78;10395507;28;20112;-29
2023/12/26 03:15:16;;;;;;;0.20;0.10;;;;;;;18.62;56.04;96663.09;10390803;28;20045;-29
2023/12/26 03:20:16;;;;;;;0.10;0.10;;;;;;;18.60;56.43;96664.78;10391606;28;20032;-29
2023/12/26 03:25:17;;;;;;;0.30;0.20;;;;;;;18.59;55.92;96663.09;10391861;28;20304;-29
2023/12/26 03:30:17;;;;;;;0.40;0.30;;;;;;;18.60;56.16;96664.78;10394549;28;20297;-30
2023/12/26 03:35:17;;;;;;;0.10;0.10;;;;;;;18.59;56.26;96665.63;10397070;28;20172;-29
2023/12/26 03:40:18;;;;;;;0.52;0.10;;;;;;;18.56;56.24;96665.63;10394514;28;20703;-29
2023/12/26 03:45:18;;;;;;;0.25;0.20;;;;;;;18.58;56.25;96646.19;10394489;28;20400;-29
2023/12/26 03:50:20;;;;;;;0.30;0.20;;;;;;;18.57;56.17;96664.78;10392274;28;20052;-31
2023/12/26 03:55:20;;;;;;;0.17;0.10;;;;;;;18.58;56.15;96669.84;10395524;28;20292;-29
2023/12/26 04:00:21;;;;;;;0.30;0.13;;;;;;;18.54;56.07;96659.72;10394381;28;20488;-29
2023/12/26 04:05:22;;;;;;;0.20;0.20;;;;;;;18.56;56.25;96673.22;10394633;28;20537;-30
2023/12/26 04:10:22;;;;;;;0.15;0.10;;;;;;;18.52;56.09;96689.28;10407083;28;20041;-29
2023/12/26 04:15:24;;;;;;;0.30;0.22;;;;;;;18.57;56.28;96695.22;10396779;28;20030;-29
2023/12/26 04:20:24;;;;;;;0.20;0.20;;;;;;;18.56;56.20;96683.38;10396002;28;20041;-29
2023/12/26 04:25:25;;;;;;;0.20;0.20;;;;;;;18.55;56.21;96686.75;10389961;28;20030;-30
2023/12/26 04:30:25;;;;;;;0.10;0.10;;;;;;;18.48;56.17;96685.91;10396023;28;20034;-29
2023/12/26 04:35:26;;;;;;;0.30;0.28;;;;;;;18.53;56.26;96693.53;10403750;28;20037;-30
2023/12/26 04:40:26;;;;;;;0.20;0.20;;;;;;;18.54;56.26;96706.22;10402568;28;20036;-30
2023/12/26 04:45:28;;;;;;;0.22;0.20;;;;;;;18.53;56.29;96704.53;10401799;28;20036;-31
2023/12/26 04:50:28;;;;;;;0.20;0.20;;;;;;;18.50;56.23;96709.56;10399604;28;20044;-29
2023/12/26 04:55:28;;;;;;;0.10;0.10;;;;;;;18.51;56.21;96705.34;10404429;28;20045;-29
2023/12/26 05:00:29;;;;;;;0.20;0.20;;;;;;;18.49;56.33;96712.13;10403173;28;20033;-29
2023/12/26 05:05:29;;;;;;;0.15;0.10;;;;;;;18.49;56.18;96719.72;10405964;28;20282;-29
2023/12/26 05:10:33;;;;;;;0.90;0.20;;;;;;;18.53;56.16;96723.94;10401670;28;20034;-29
2023/12/26 05:15:35;;;;;;;0.30;0.30;;;;;;;18.49;56.19;96724.81;10402781;28;20026;-29
2023/12/26 05:20:35;;;;;;;0.30;0.25;;;;;;;18.50;56.44;96721.41;10400607;28;20109;-29
2023/12/26 05:25:36;;;;;;;0.38;0.30;;;;;;;18.48;56.25;96723.09;10404421;28;20586;-30
2023/12/26 05:30:37;;;;;;;0.23;0.20;;;;;;;18.47;56.45;96724.78;10403167;28;20036;-31
2023/12/26 05:35:38;;;;;;;0.30;0.20;;;;;;;18.48;56.52;96720.56;10402625;28;20029;-31
2023/12/26 05:40:40;;;;;;;0.30;0.30;;;;;;;18.48;55.64;96735.75;10406112;28;20041;-30
2023/12/26 05:45:40;;;;;;;0.15;0.13;;;;;;;18.47;56.20;96749.28;10403330;28;20026;-28
2023/12/26 05:50:41;;;;;;;0.17;0.17;;;;;;;18.48;56.27;96740.81;10402915;28;20029;-29
2023/12/26 05:55:42;;;;;;;0.10;0.10;;;;;;;18.48;56.16;96750.97;10404079;28;20029;-30
2023/12/26 06:00:43;;;;;;;0.10;0.10;;;;;;;18.46;56.30;96742.53;10403000;28;20037;-30
2023/12/26 06:05:44;;;;;;;0.10;0.10;;;;;;;18.45;56.47;96750.97;10404239;28;20072;-29
2023/12/26 06:10:45;;;;;;;0.20;0.13;;;;;;;18.46;56.23;96762.81;10394354;28;20040;-29
2023/12/26 06:15:46;;;;;;;0.30;0.30;;;;;;;18.46;56.30;96773.81;10381467;28;20037;-29
2023/12/26 06:20:46;;;;;;;0.17;0.17;;;;;;;18.43;56.35;96781.38;10385805;28;20804;-29
2023/12/26 06:25:46;;;;;;;0.13;0.13;;;;;;;18.44;55.96;96782.25;10382878;28;20280;-31
2023/12/26 06:30:47;;;;;;;0.10;0.10;;;;;;;18.45;56.14;96801.69;10386290;28;20816;-29
2023/12/26 06:35:49;;;;;;;0.50;0.23;;;;;;;18.43;56.47;96799.13;10393081;28;20099;-29
2023/12/26 06:40:50;;;;;;;0.30;0.20;;;;;;;18.41;56.38;96803.38;10394978;28;20710;-30
2023/12/26 06:45:51;;;;;;;0.20;0.20;;;;;;;18.40;56.47;96794.06;10430836;28;20033;-29
2023/12/26 06:50:52;;;;;;;0.30;0.20;;;;;;;18.43;56.43;96805.91;10381901;28;20072;-29
2023/12/26 06:55:53;;;;;;;0.10;0.10;;;;;;;18.42;56.27;96806.75;10399382;28;20033;-29
2023/12/26 07:00:54;;;;;;;0.28;0.28;;;;;;;18.38;56.04;96815.19;10388580;28;20100;-29
2023/12/26 07:05:54;;;;;;;0.30;0.20;;;;;;;18.41;56.45;96815.22;10377432;28;20033;-29
2023/12/26 07:10:54;;;;;;;0.10;0.10;;;;;;;18.36;56.54;96827.00;10384396;28;20488;-29
2023/12/26 07:15:55;;;;;;;0.30;0.20;;;;;;;18.35;55.96;96826.16;10386961;28;20400;-28
2023/12/26 07:20:55;;;;;;;0.10;0.10;;;;;;;18.37;56.17;96848.97;10395335;28;20296;-29
2023/12/26 07:25:56;;;;;;;0.50;0.27;;;;;;;18.28;56.32;96828.66;10402316;28;20049;-29
2023/12/26 07:30:57;;;;;;;0.20;0.20;;;;;;;18.37;55.87;96842.25;10401411;28;20591;-29
2023/12/26 07:36:00;;;;;;;0.15;0.13;;;;;;;18.38;56.43;96845.59;10374960;28;20546;-30
2023/12/26 07:41:00;;;;;;;0.10;0.10;;;;;;;18.38;56.49;96848.13;10394448;28;20061;-30
2023/12/26 07:46:00;;;;;;;0.30;0.23;;;;;;;18.37;56.26;96854.06;10387595;28;20037;-29
2023/12/26 07:51:01;;;;;;;0.20;0.20;;;;;;;18.36;56.26;96865.91;10382674;28;20038;-29
2023/12/26 07:56:01;;;;;;;0.20;0.10;;;;;;;18.35;56.35;96865.88;10379388;28;20164;-29
2023/12/26 08:01:02;;;;;;;0.30;0.30;;;;;;;18.34;56.28;96859.13;10385866;28;20605;-29
2023/12/26 08:06:03;;;;;;;0.17;0.17;;;;;;;18.36;56.21;96863.38;10394196;28;20289;-30
2023/12/26 08:11:03;;;;;;;0.10;0.10;;;;;;;18.35;56.19;96876.03;10392266;28;20520;-29
2023/12/26 08:16:05;;;;;;;0.20;0.20;;;;;;;18.27;56.41;96857.38;10404187;28;20047;-29
2023/12/26 08:21:06;;;;;;;0.17;0.17;;;;;;;18.33;56.28;96888.69;10388106;28;20041;-30
2023/12/26 08:26:07;;;;;;;0.10;0.10;;;;;;;18.33;56.36;96881.06;10408858;28;20037;-30
2023/12/26 08:31:07;;;;;;;0.15;0.13;;;;;;;18.31;56.28;96882.78;10394785;28;20037;-29
2023/12/26 08:36:08;;;;;;;0.43;0.43;;;;;;;18.32;56.18;96889.53;10392808;28;20030;-29
2023/12/26 08:41:10;;;;;;;0.17;0.10;;;;;;;18.32;56.28;96893.75;10396978;28;20034;-29
2023/12/26 08:46:10;;;;;;;0.82;0.52;;;;;;;18.33;56.14;96898.00;10404320;28;20033;-29
2023/12/26 08:51:10;;;;;;;0.20;0.20;;;;;;;18.31;56.39;96902.19;10391235;28;20034;-29
2023/12/26 08:56:11;;;;;;;0.20;0.10;;;;;;;18.31;56.28;96908.13;10390653;28;20044;-29
2023/12/26 09:01:11;;;;;;;0.13;0.10;;;;;;;18.30;56.31;96919.09;10392786;28;20041;-29
2023/12/26 09:06:12;;;;;;;0.20;0.20;;;;;;;18.32;56.28;96916.56;10397889;28;20033;-29
2023/12/26 09:11:13;;;;;;;0.13;0.13;;;;;;;18.28;56.32;96935.97;10395579;28;20753;-30
2023/12/26 09:16:14;;;;;;;0.20;0.20;;;;;;;18.29;56.23;96936.78;10392493;28;20607;-30
2023/12/26 09:21:14;;;;;;;0.10;0.10;;;;;;;18.29;56.45;96952.00;10391140;28;20447;-29
2023/12/26 09:26:20;;;;;;;0.33;0.20;;;;;;;18.28;56.17;96962.97;10385219;28;20104;-29
2023/12/26 09:31:21;;;;;;;0.05;0.05;;;;;;;18.24;56.25;96956.22;10390153;28;20280;-29
2023/12/26 09:36:21;;;;;;;0.10;0.10;;;;;;;18.26;56.33;96957.06;10393417;28;20519;-29
2023/12/26 09:41:24;;;;;;;1.77;0.30;;;;;;;18.27;56.31;96954.53;10391930;28;20065;-29
2023/12/26 09:46:25;;;;;;;0.20;0.17;;;;;;;18.25;56.54;96960.44;10399890;28;20382;-31
2023/12/26 09:51:25;;;;;;;0.20;0.20;;;;;;;18.20;56.51;96945.22;10395372;28;20047;-29
2023/12/26 09:56:27;;;;;;;0.10;0.10;;;;;;;18.15;56.34;96931.66;10397021;28;20041;-29
2023/12/26 10:01:28;;;;;;;0.30;0.28;;;;;;;18.24;56.07;96953.69;10400072;28;20035;-29
2023/12/26 10:06:29;;;;;;;0.15;0.15;;;;;;;18.24;56.21;96974.78;10390250;28;20130;-29
2023/12/26 10:11:32;;;;;;;0.32;0.20;;;;;;;18.25;56.46;96976.47;10389950;28;20059;-29
2023/12/26 10:16:34;;;;;;;0.28;0.22;;;;;;;18.24;56.44;96989.16;10394459;28;20029;-29
2023/12/26 10:21:34;;;;;;;0.20;0.10;;;;;;;18.21;56.17;96982.38;10393652;28;20061;-29
2023/12/26 10:26:35;;;;;;;0.40;0.20;;;;;;;18.23;56.34;96977.31;10387434;28;20479;-28
2023/12/26 10:31:35;;;;;;;0.05;0.05;;;;;;;18.21;56.43;96971.38;10384181;28;20097;-30
2023/12/26 10:36:41;;;;;;;0.10;0.10;;;;;;;18.24;56.34;96989.16;10398516;28;20049;-29
2023/12/26 10:41:48;;;;;;;0.30;0.13;;;;;;;18.21;56.42;96996.72;10386513;28;20554;-29
2023/12/26 10:46:49;;;;;;;0.13;0.13;;;;;;;18.24;56.41;96995.06;10393362;28;20038;-29
2023/12/26 10:51:52;;;;;;;0.38;0.20;;;;;;;18.23;56.36;96992.50;10385270;28;20030;-30
2023/12/26 10:56:53;;;;;;;0.20;0.20;;;;;;;18.18;56.45;96994.19;10391541;28;20069;-30
2023/12/26 11:01:53;;;;;;;0.20;0.20;;;;;;;18.22;56.23;97003.50;10386870;28;20037;-29
2023/12/26 11:06:54;;;;;;;0.10;0.10;;;;;;;18.20;56.27;97003.50;10396729;28;20032;-29
2023/12/26 11:11:54;;;;;;;0.10;0.08;;;;;;;18.21;56.46;97029.66;10385354;28;20494;-29
2023/12/26 11:16:55;;;;;;;0.47;0.20;;;;;;;18.20;56.51;97008.56;10391961;28;20030;-29
2023/12/26 11:21:55;;;;;;;0.20;0.10;;;;;;;18.19;56.31;96988.28;10397459;28;20048;-29
2023/12/26 11:26:56;;;;;;;0.30;0.17;;;;;;;18.19;56.05;96981.53;10386303;28;20033;-30
2023/12/26 11:31:57;;;;;;;0.20;0.10;;;;;;;18.20;56.59;96979.84;10385071;28;20281;-29
2023/12/26 11:36:57;;;;;;;0.13;0.10;;;;;;;18.19;56.45;96976.47;10383414;28;20041;-29
2023/12/26 11:41:57;;;;;;;0.10;0.10;;;;;;;18.20;56.45;96972.22;10378026;28;20045;-29
2023/12/26 11:46:58;;;;;;;0.10;0.10;;;;;;;18.16;56.36;96978.13;10397030;28;20794;-29
2023/12/26 11:51:58;;;;;;;0.10;0.10;;;;;;;18.19;56.88;96973.06;10398095;28;20037;-30
2023/12/26 11:56:58;;;;;;;0.10;0.10;;;;;;;18.17;56.49;96978.13;10398481;28;20353;-29
2023/12/26 12:01:59;;;;;;;0.10;0.10;;;;;;;18.17;56.34;96972.22;10389912;28;20796;-29
2023/12/26 12:07:10;;;;;;;0.25;0.20;;;;;;;18.17;56.28;96972.22;10393871;28;20095;-30
2023/12/26 12:12:15;;;;;;;0.17;0.13;;;;;;;18.17;56.26;96970.53;10386600;28;20192;-30
2023/12/26 12:17:15;;;;;;;0.20;0.20;;;;;;;18.16;56.15;96975.59;10389213;28;20030;-31
2023/12/26 12:22:25;;;;;;;0.08;0.08;;;;;;;18.14;56.53;96977.25;10389415;28;20041;-30
2023/12/26 12:27:26;;;;;;;0.10;0.10;;;;;;;18.15;56.21;96978.97;10392153;28;20033;-30
2023/12/26 12:32:31;;;;;;;0.10;0.10;;;;;;;18.14;56.56;96967.97;10387789;28;20068;-33
2023/12/26 12:37:31;;;;;;;0.22;0.20;;;;;;;18.16;56.37;96978.13;10392780;28;20039;-30
2023/12/26 12:42:36;;;;;;;0.53;0.10;;;;;;;18.16;56.55;96985.75;10383596;28;20033;-31
2023/12/26 12:47:37;;;;;;;0.17;0.17;;;;;;;18.16;56.49;96985.75;10388715;28;20291;-30
2023/12/26 12:52:37;;;;;;;0.30;0.22;;;;;;;18.14;56.44;96988.25;10399119;28;20646;-30
2023/12/26 12:57:38;;;;;;;0.35;0.20;;;;;;;18.12;56.52;97000.06;10391123;28;20467;-30
2023/12/26 13:02:39;;;;;;;0.20;0.20;;;;;;;18.14;56.30;97002.59;10396304;28;20026;-30
2023/12/26 13:07:40;;;;;;;0.30;0.10;;;;;;;18.12;56.37;97024.56;10395115;28;20032;-30
2023/12/26 13:12:40;;;;;;;0.32;0.15;;;;;;;18.13;56.02;97006.84;10389235;28;20432;-30
2023/12/26 13:17:40;;;;;;;0.20;0.20;;;;;;;18.09;56.47;97004.28;10399119;28;20040;-30
2023/12/26 13:22:44;;;;;;;0.10;0.10;;;;;;;18.13;56.41;96996.69;10396408;28;20140;-31
2023/12/26 13:27:44;;;;;;;0.28;0.10;;;;;;;18.10;56.40;96993.28;10393375;28;20112;-30
2023/12/26 13:32:45;;;;;;;0.17;0.10;;;;;;;18.06;56.48;96983.97;10396858;28;20037;-30
2023/12/26 13:37:45;;;;;;;0.10;0.10;;;;;;;18.10;56.46;96985.69;10390014;28;20052;-30
2023/12/26 13:42:45;;;;;;;0.27;0.20;;;;;;;18.10;56.54;96985.69;10400075;28;20296;-30
2023/12/26 13:47:46;;;;;;;0.10;0.10;;;;;;;18.00;56.87;96971.28;10400162;28;20034;-30
2023/12/26 13:52:46;;;;;;;0.20;0.20;;;;;;;18.08;56.65;96995.81;10400734;28;20166;-30
2023/12/26 13:57:46;;;;;;;0.17;0.13;;;;;;;18.08;56.53;96993.28;10394981;28;20308;-30
2023/12/26 14:02:47;;;;;;;0.10;0.10;;;;;;;18.07;56.59;96980.63;10395677;28;20033;-31
2023/12/26 14:07:48;;;;;;;0.30;0.10;;;;;;;18.07;56.60;96973.84;10396504;28;20025;-30
2023/12/26 14:12:49;;;;;;;0.17;0.13;;;;;;;18.08;56.73;96972.19;10390124;28;20080;-30
2023/12/26 14:17:49;;;;;;;0.10;0.10;;;;;;;18.06;56.64;96978.91;10403929;28;20767;-30
2023/12/26 14:22:50;;;;;;;0.30;0.20;;;;;;;18.06;56.53;97010.16;10400719;28;20033;-30
2023/12/26 14:27:51;;;;;;;0.17;0.10;;;;;;;18.06;56.72;97009.31;10391296;28;20042;-30
2023/12/26 14:32:51;;;;;;;0.30;0.10;;;;;;;18.05;56.57;97010.16;10400221;28;20657;-30
2023/12/26 14:37:52;;;;;;;0.20;0.13;;;;;;;18.05;56.77;97011.00;10401801;28;20446;-31
2023/12/26 14:42:52;;;;;;;0.20;0.20;;;;;;;18.05;56.51;97022.81;10401907;28;20523;-29
2023/12/26 14:47:52;;;;;;;0.13;0.13;;;;;;;18.03;56.44;97034.63;10396199;28;20502;-30
2023/12/26 14:52:53;;;;;;;0.70;0.30;;;;;;;18.03;56.70;97037.16;10401840;28;20033;-29
2023/12/26 14:57:53;;;;;;;0.20;0.10;;;;;;;18.01;56.88;97026.19;10397743;28;20518;-30
2023/12/26 15:02:53;;;;;;;0.20;0.10;;;;;;;18.03;56.89;97030.44;10398029;28;20403;-30
2023/12/26 15:07:54;;;;;;;0.30;0.20;;;;;;;18.02;56.78;97038.00;10398047;28;20288;-31
2023/12/26 15:12:54;;;;;;;0.17;0.17;;;;;;;18.03;56.58;97027.03;10391931;28;20043;-30
2023/12/26 15:17:55;;;;;;;0.20;0.10;;;;;;;18.00;56.42;97006.75;10398083;28;20033;-30
2023/12/26 15:22:55;;;;;;;1.63;0.10;;;;;;;18.02;56.88;97028.72;10399639;28;20856;-30
2023/12/26 15:27:55;;;;;;;0.40;0.23;;;;;;;17.99;56.78;97017.72;10391124;28;20295;-30
2023/12/26 15:32:56;;;;;;;0.20;0.10;;;;;;;17.97;56.67;97010.09;10400286;28;20037;-30
2023/12/26 15:37:56;;;;;;;0.20;0.10;;;;;;;17.98;56.83;97011.81;10395486;28;20515;-29
2023/12/26 15:42:56;;;;;;;0.17;0.10;;;;;;;18.00;56.47;97020.25;10394618;28;20094;-30
2023/12/26 15:47:57;;;;;;;0.07;0.00;;;;;;;18.02;56.15;97022.81;10398707;28;20029;-30
2023/12/26 15:52:57;;;;;;;0.10;0.10;;;;;;;18.00;56.57;97035.44;10397954;28;20303;-30
2023/12/26 15:57:57;;;;;;;0.10;0.10;;;;;;;17.99;56.56;97043.06;10399655;28;20519;-31
2023/12/26 16:02:58;;;;;;;0.20;0.20;;;;;;;17.99;56.48;97038.00;10397298;28;20045;-30
2023/12/26 16:07:58;;;;;;;0.20;0.17;;;;;;;17.98;56.59;97049.81;10393101;28;20053;-30
2023/12/26 16:12:58;;;;;;;0.20;0.10;;;;;;;17.97;56.42;97059.91;10389642;28;20036;-29
2023/12/26 16:17:59;;;;;;;0.20;0.20;;;;;;;17.83;56.58;97036.19;10401531;28;20029;-30
2023/12/26 16:23:05;;;;;;;0.10;0.10;;;;;;;17.94;56.50;97049.78;10395967;28;20044;-29
2023/12/26 16:28:06;;;;;;;0.23;0.20;;;;;;;17.96;56.52;97059.09;10397130;28;20037;-30
2023/12/26 16:33:06;;;;;;;0.40;0.20;;;;;;;17.98;56.57;97066.69;10406889;28;20037;-30
2023/12/26 16:38:06;;;;;;;0.35;0.20;;;;;;;17.95;56.70;97066.66;10404407;28;21058;-30
2023/12/26 16:43:07;;;;;;;0.27;0.17;;;;;;;17.94;56.43;97075.09;10401247;28;20043;-30
2023/12/26 16:48:07;;;;;;;0.10;0.10;;;;;;;17.95;56.53;97076.78;10407616;28;20029;-29
2023/12/26 16:53:08;;;;;;;0.13;0.10;;;;;;;17.94;56.69;97086.09;10405659;28;20040;-30
2023/12/26 16:58:08;;;;;;;0.10;0.10;;;;;;;17.96;56.69;97088.63;10406439;28;20136;-30
2023/12/26 17:03:08;;;;;;;0.47;0.20;;;;;;;17.93;56.54;97103.81;10405374;28;20295;-30
2023/12/26 17:08:09;;;;;;;0.60;0.30;;;;;;;17.94;56.48;97100.44;10399635;28;20050;-30
2023/12/26 17:13:09;;;;;;;0.10;0.10;;;;;;;17.94;56.50;97100.44;10403320;28;20303;-30
2023/12/26 17:18:10;;;;;;;0.10;0.10;;;;;;;17.90;56.42;97088.59;10401058;28;20041;-30
2023/12/26 17:23:12;;;;;;;0.27;0.20;;;;;;;17.78;55.65;97078.34;10394492;28;20087;-30
2023/12/26 17:28:13;;;;;;;1.00;0.20;;;;;;;17.89;55.71;97081.81;10380248;28;20296;-32
2023/12/26 17:33:13;;;;;;;1.85;0.30;;;;;;;17.86;56.11;97086.84;10394271;28;20162;-29
2023/12/26 17:38:14;;;;;;;1.00;0.30;;;;;;;17.92;56.14;97102.09;10395823;28;20672;-30
2023/12/26 17:43:14;;;;;;;0.30;0.20;;;;;;;17.89;55.74;97102.94;10396656;28;20045;-29
2023/12/26 17:48:17;;;;;;;0.30;0.20;;;;;;;17.93;55.67;97119.00;10379390;28;20048;-30
2023/12/26 17:53:18;;;;;;;0.57;0.20;;;;;;;17.94;56.03;97111.44;10393972;28;20701;-30
2023/12/26 17:58:18;;;;;;;0.40;0.30;;;;;;;18.02;55.73;97119.06;10397555;28;20029;-30
2023/12/26 18:03:19;;;;;;;2.60;0.47;;;;;;;18.00;55.17;97135.97;10389636;28;20033;-31
2023/12/26 18:08:19;;;;;;;0.37;0.37;;;;;;;18.01;55.51;97151.16;10387764;28;20032;-31
2023/12/26 18:13:19;;;;;;;1.95;0.40;;;;;;;18.00;55.56;97151.16;10392588;28;20156;-31
2023/12/26 18:18:20;;;;;;;1.63;0.60;;;;;;;18.07;55.01;97152.91;10406053;28;20045;-30
2023/12/26 18:23:21;;;;;;;2.15;0.85;;;;;;;18.03;55.49;97152.03;10399404;28;20034;-30
2023/12/26 18:28:21;;;;;;;1.03;0.50;;;;;;;17.90;55.16;97131.66;10393387;28;20092;-29
2023/12/26 18:33:24;;;;;;;1.10;0.57;;;;;;;18.05;55.10;97154.56;10400796;28;20546;-31
2023/12/26 18:38:24;;;;;;;2.25;0.40;;;;;;;18.04;55.56;97152.88;10396040;28;20050;-30
2023/12/26 18:43:24;;;;;;;1.03;0.53;;;;;;;18.04;55.34;97152.88;10396111;28;20084;-30
2023/12/26 18:48:26;;;;;;;2.13;0.70;;;;;;;18.03;54.79;97156.25;10390184;28;20107;-30
2023/12/26 18:53:27;;;;;;;1.98;0.70;;;;;;;18.01;55.11;97168.06;10385230;28;20121;-30
2023/12/26 18:58:27;;;;;;;1.83;0.60;;;;;;;18.04;54.29;97157.94;10382610;28;20071;-31
2023/12/26 19:03:27;;;;;;;2.13;0.93;;;;;;;18.00;54.96;97146.91;10395354;28;20295;-30
2023/12/26 19:08:28;;;;;;;1.97;1.10;;;;;;;18.03;54.71;97153.72;10388383;28;20483;-31
2023/12/26 19:13:28;;;;;;;2.23;0.87;;;;;;;18.02;54.60;97154.53;10386597;28;20041;-31
2023/12/26 19:18:29;;;;;;;1.30;0.93;;;;;;;18.04;54.58;97157.94;10396253;28;20476;-31
2023/12/26 19:23:29;;;;;;;1.97;1.10;;;;;;;18.03;54.42;97146.09;10391607;28;20033;-30
2023/12/26 19:28:29;;;;;;;3.77;1.40;;;;;;;17.99;54.50;97136.78;10389948;28;20514;-30
2023/12/26 19:33:30;;;;;;;2.58;1.30;;;;;;;18.02;54.63;97142.75;10387951;28;20042;-30
2023/12/26 19:38:31;;;;;;;1.60;0.90;;;;;;;18.01;54.40;97142.72;10391545;28;20424;-30
2023/12/26 19:43:32;;;;;;;3.05;1.42;;;;;;;17.97;54.39;97148.56;10391871;28;20569;-30
2023/12/26 19:48:32;;;;;;;4.70;1.33;;;;;;;18.01;54.45;97147.78;10398450;28;20047;-31
2023/12/26 19:53:33;;;;;;;1.63;1.20;;;;;;;17.99;54.47;97162.13;10392828;28;20045;-30
2023/12/26 19:58:34;;;;;;;3.40;1.50;;;;;;;18.00;54.26;97176.50;10387703;28;20042;-30
2023/12/26 20:03:34;;;;;;;1.80;1.27;;;;;;;17.98;54.09;97160.44;10394330;28;20096;-30
2023/12/26 20:08:35;;;;;;;2.63;1.67;;;;;;;17.95;54.25;97168.00;10411578;28;20099;-30
2023/12/26 20:13:36;;;;;;;2.75;2.05;;;;;;;17.96;54.97;97179.81;10397948;28;20915;-30
2023/12/26 20:18:37;;;;;;;4.00;1.90;;;;;;;17.96;54.11;97172.22;10395560;28;20041;-30
2023/12/26 20:23:37;;;;;;;3.83;1.80;;;;;;;17.95;53.90;97168.00;10391064;28;20060;-30
2023/12/26 20:28:37;;;;;;;2.80;1.70;;;;;;;17.95;54.11;97183.19;10397609;28;20453;-30
2023/12/26 20:33:38;;;;;;;4.87;2.10;;;;;;;17.91;53.78;97186.53;10389750;28;20485;-31
2023/12/26 20:38:38;;;;;;;2.50;1.30;;;;;;;17.93;53.54;97185.69;10396633;28;20034;-29
2023/12/26 20:43:39;;;;;;;3.77;2.00;;;;;;;17.88;53.71;97191.56;10388405;28;20038;-30
2023/12/26 20:48:39;;;;;;;3.10;1.92;;;;;;;17.92;53.72;97178.94;10390105;28;20392;-30
2023/12/26 20:53:40;;;;;;;3.53;1.83;;;;;;;17.92;53.30;97176.41;10405133;28;20033;-30
2023/12/26 20:58:40;;;;;;;2.92;1.70;;;;;;;17.91;53.48;97181.47;10394171;28;20041;-30
2023/12/26 21:03:41;;;;;;;2.40;1.40;;;;;;;17.87;53.58;97169.59;10404323;28;20498;-30
2023/12/26 21:08:41;;;;;;;3.45;1.92;;;;;;;17.91;53.24;97178.94;10404250;28;20025;-30
2023/12/26 21:13:42;;;;;;;2.23;1.40;;;;;;;17.90;53.30;97182.31;10411739;28;20056;-32
2023/12/26 21:18:44;;;;;;;3.20;2.00;;;;;;;17.89;53.44;97183.13;10391988;28;20038;-30
2023/12/26 21:23:44;;;;;;;2.88;1.83;;;;;;;17.89;53.30;97189.06;10392233;28;20553;-31
2023/12/26 21:28:45;;;;;;;3.53;2.17;;;;;;;17.86;53.07;97183.09;10405186;28;20090;-29
2023/12/26 21:33:46;;;;;;;2.63;2.00;;;;;;;17.87;52.30;97184.78;10395287;28;20358;-30
2023/12/26 21:38:47;;;;;;;3.97;1.77;;;;;;;17.91;51.66;97209.34;10389273;28;20129;-30
2023/12/26 21:43:47;;;;;;;2.38;1.85;;;;;;;17.89;50.33;97213.50;10390125;28;20384;-30
2023/12/26 21:48:48;;;;;;;2.28;1.65;;;;;;;17.88;50.79;97206.75;10401612;28;20040;-30
2023/12/26 21:53:48;;;;;;;2.25;1.60;;;;;;;17.84;50.57;97189.84;10403908;28;20108;-30
2023/12/26 21:58:48;;;;;;;2.03;1.30;;;;;;;17.81;49.86;97193.19;10394850;28;20030;-30
2023/12/26 22:03:49;;;;;;;2.80;1.50;;;;;;;17.83;49.38;97199.13;10398896;28;20031;-29
2023/12/26 22:08:49;;;;;;;2.83;1.43;;;;;;;17.85;49.47;97186.47;10393005;28;20036;-30
2023/12/26 22:13:50;;;;;;;2.67;1.85;;;;;;;17.84;50.38;97187.31;10396549;28;20028;-30
2023/12/26 22:18:52;;;;;;;5.13;1.37;;;;;;;17.84;51.05;97194.91;10400622;28;20070;-30
2023/12/26 22:23:54;;;;;;;2.63;1.75;;;;;;;17.79;51.47;97206.66;10393476;28;20515;-30
2023/12/26 22:28:56;;;;;;;2.50;1.23;;;;;;;17.82;51.31;97215.16;10393176;28;20033;-30
2023/12/26 22:33:59;;;;;;;3.65;1.75;;;;;;;17.82;51.77;97221.91;10395770;28;20041;-30
2023/12/26 22:38:59;;;;;;;2.15;1.30;;;;;;;17.81;51.85;97220.19;10396247;28;20033;-30
2023/12/26 22:44:01;;;;;;;3.27;1.47;;;;;;;17.82;51.54;97234.56;10396769;28;20037;-30
2023/12/26 22:49:02;;;;;;;3.08;1.70;;;;;;;17.80;51.75;97248.88;10399300;28;20026;-30
2023/12/26 22:54:02;;;;;;;3.03;1.40;;;;;;;17.79;51.78;97270.84;10393261;28;20033;-30
2023/12/26 22:59:02;;;;;;;2.63;1.40;;;;;;;17.78;51.98;97255.63;10403198;28;20041;-30
2023/12/26 23:04:03;;;;;;;2.03;1.20;;;;;;;17.74;52.01;97238.72;10398858;28;20280;-31
2023/12/26 23:09:03;;;;;;;3.40;2.33;;;;;;;17.76;52.13;97249.69;10397943;28;20214;-30
2023/12/26 23:14:05;;;;;;;2.72;1.60;;;;;;;17.76;52.37;97260.66;10399961;28;20037;-29
2023/12/26 23:19:11;;;;;;;2.92;1.45;;;;;;;17.77;51.91;97248.84;10389779;28;20042;-30